Leni P. — A8XW5 — position and weather

sailwx.info

Track history (hours):
 
Tides and Currents Weather Stations Pressure Air Temp Water Temp Dewpoint Dewpoint Depression Visibility Wind Speed Wind Dir Waves Ship Positions

Leni P.

Last reported at 2015-Mar-01 07:33 UTC. Time now 2015-Mar-02 20:37 UTC.
Position N 29°36' E 122°31'.

Length 274 m; draft 8.9 m.

Type: Tanker. MMSI: 636014986.

Date/timePositionNaut miles runAvg speedWind from/ knotsBaromVisibWave heightAir tempDewpointWater temp
2015-Mar-01 07:33N 29°36' E 122°31'1413.7
2015-Mar-01 06:33N 29°45' E 122°19'1111.1
2015-Mar-01 05:33N 29°53' E 122°11'4 2.2
2015-Mar-01 03:33N 29°57' E 122°08'0 0.0
2015-Mar-01 02:12N 29°57' E 122°08'0 0.0
2015-Mar-01 01:21N 29°57' E 122°08'0 0.0
2015-Mar-01 00:18N 29°57' E 122°08'0 0.0
2015-Feb-28 23:09N 29°57' E 122°08'0 0.0
2015-Feb-28 22:21N 29°57' E 122°08'0 0.0
2015-Feb-28 21:30N 29°57' E 122°08'0 0.0
2015-Feb-28 20:33N 29°57' E 122°08'0 0.0
2015-Feb-28 19:27N 29°57' E 122°08'0 0.0
2015-Feb-28 18:30N 29°57' E 122°08'0 0.0
2015-Feb-28 17:27N 29°57' E 122°08'0 0.0
2015-Feb-28 16:18N 29°57' E 122°08'0 0.0
2015-Feb-28 15:30N 29°57' E 122°08'0 0.0
2015-Feb-28 14:15N 29°57' E 122°08'0 0.0
2015-Feb-28 13:27N 29°57' E 122°08'0 0.0
2015-Feb-28 12:33N 29°57' E 122°08'0 0.0
2015-Feb-28 11:33N 29°57' E 122°08'0 0.0
2015-Feb-28 10:03N 29°57' E 122°08'0 0.0
2015-Feb-28 09:30N 29°57' E 122°08'0 0.0
2015-Feb-28 08:33N 29°57' E 122°08'0 0.0
2015-Feb-28 07:30N 29°57' E 122°08'0 0.0
2015-Feb-28 06:21N 29°57' E 122°08'0 0.0
2015-Feb-28 05:03N 29°57' E 122°08'0 0.0
2015-Feb-28 04:33N 29°57' E 122°08'0 0.0
2015-Feb-28 03:12N 29°57' E 122°08'0 0.0
2015-Feb-28 02:27N 29°57' E 122°08'0 0.0
2015-Feb-28 01:27N 29°57' E 122°08'0 0.0
2015-Feb-28 00:18N 29°57' E 122°08'0 0.0
2015-Feb-27 23:33N 29°57' E 122°08'0 0.0
2015-Feb-27 22:33N 29°57' E 122°08'0 0.0
2015-Feb-27 21:21N 29°57' E 122°08'0 0.0
2015-Feb-27 20:33N 29°57' E 122°08'0 0.0
2015-Feb-27 19:21N 29°57' E 122°08'0 0.0
2015-Feb-27 18:27N 29°57' E 122°08'0 0.0
2015-Feb-27 17:18N 29°57' E 122°08'0 0.0
2015-Feb-27 16:09N 29°57' E 122°08'0 0.0
2015-Feb-27 15:27N 29°57' E 122°08'0 0.0
2015-Feb-27 14:33N 29°57' E 122°08'0 0.0
2015-Feb-27 13:09N 29°57' E 122°08'0 0.0
2015-Feb-27 12:30N 29°57' E 122°08'0 0.0
2015-Feb-27 11:33N 29°57' E 122°08'0 0.0
2015-Feb-27 10:21N 29°57' E 122°08'0 0.0
2015-Feb-27 09:24N 29°57' E 122°08'0 0.0
2015-Feb-27 08:33N 29°57' E 122°08'0 0.0
2015-Feb-27 07:15N 29°57' E 122°08'0 0.0
2015-Feb-27 05:12N 29°57' E 122°08'0 0.1
2015-Feb-27 04:33N 29°57' E 122°08'4 4.4
2015-Feb-27 03:33N 29°53' E 122°11'7 7.0
2015-Feb-27 02:33N 29°47' E 122°16'8 7.8
2015-Feb-27 01:33N 29°43' E 122°24'10 9.7
2015-Feb-27 00:33N 29°42' E 122°35'0 0.4
2015-Feb-26 23:21N 29°41' E 122°35'0 0.0
2015-Feb-26 22:30N 29°41' E 122°35'0 0.0
2015-Feb-26 14:30N 29°41' E 122°35'0 0.0
2015-Feb-26 13:27N 29°41' E 122°35'0 0.0
2015-Feb-26 11:33N 29°41' E 122°35'7 6.6
2015-Feb-26 10:33N 29°35' E 122°37'2311.2
2015-Feb-26 08:30N 29°12' E 122°38'  
Track history (hours):
 
Tides and Currents Weather Stations Pressure Air Temp Water Temp Dewpoint Dewpoint Depression Visibility Wind Speed Wind Dir Waves Ship Positions

Leni P.

Last reported at 2015-Mar-01 07:33 UTC. Time now 2015-Mar-02 20:37 UTC.
Position N 29°36' E 122°31'.

Length 274 m; draft 8.9 m.

Type: Tanker. MMSI: 636014986.

Date/timePositionNaut miles runAvg speedWind from/ knotsBaromVisibWave heightAir tempDewpointWater temp
2015-Mar-01 07:33N 29°36' E 122°31'1413.7
2015-Mar-01 06:33N 29°45' E 122°19'1111.1
2015-Mar-01 05:33N 29°53' E 122°11'4 2.2
2015-Mar-01 03:33N 29°57' E 122°08'0 0.0
2015-Mar-01 02:12N 29°57' E 122°08'0 0.0
2015-Mar-01 01:21N 29°57' E 122°08'0 0.0
2015-Mar-01 00:18N 29°57' E 122°08'0 0.0
2015-Feb-28 23:09N 29°57' E 122°08'0 0.0
2015-Feb-28 22:21N 29°57' E 122°08'0 0.0
2015-Feb-28 21:30N 29°57' E 122°08'0 0.0
2015-Feb-28 20:33N 29°57' E 122°08'0 0.0
2015-Feb-28 19:27N 29°57' E 122°08'0 0.0
2015-Feb-28 18:30N 29°57' E 122°08'0 0.0
2015-Feb-28 17:27N 29°57' E 122°08'0 0.0
2015-Feb-28 16:18N 29°57' E 122°08'0 0.0
2015-Feb-28 15:30N 29°57' E 122°08'0 0.0
2015-Feb-28 14:15N 29°57' E 122°08'0 0.0
2015-Feb-28 13:27N 29°57' E 122°08'0 0.0
2015-Feb-28 12:33N 29°57' E 122°08'0 0.0
2015-Feb-28 11:33N 29°57' E 122°08'0 0.0
2015-Feb-28 10:03N 29°57' E 122°08'0 0.0
2015-Feb-28 09:30N 29°57' E 122°08'0 0.0
2015-Feb-28 08:33N 29°57' E 122°08'0 0.0
2015-Feb-28 07:30N 29°57' E 122°08'0 0.0
2015-Feb-28 06:21N 29°57' E 122°08'0 0.0
2015-Feb-28 05:03N 29°57' E 122°08'0 0.0
2015-Feb-28 04:33N 29°57' E 122°08'0 0.0
2015-Feb-28 03:12N 29°57' E 122°08'0 0.0
2015-Feb-28 02:27N 29°57' E 122°08'0 0.0
2015-Feb-28 01:27N 29°57' E 122°08'0 0.0
2015-Feb-28 00:18N 29°57' E 122°08'0 0.0
2015-Feb-27 23:33N 29°57' E 122°08'0 0.0
2015-Feb-27 22:33N 29°57' E 122°08'0 0.0
2015-Feb-27 21:21N 29°57' E 122°08'0 0.0
2015-Feb-27 20:33N 29°57' E 122°08'0 0.0
2015-Feb-27 19:21N 29°57' E 122°08'0 0.0
2015-Feb-27 18:27N 29°57' E 122°08'0 0.0
2015-Feb-27 17:18N 29°57' E 122°08'0 0.0
2015-Feb-27 16:09N 29°57' E 122°08'0 0.0
2015-Feb-27 15:27N 29°57' E 122°08'0 0.0
2015-Feb-27 14:33N 29°57' E 122°08'0 0.0
2015-Feb-27 13:09N 29°57' E 122°08'0 0.0
2015-Feb-27 12:30N 29°57' E 122°08'0 0.0
2015-Feb-27 11:33N 29°57' E 122°08'0 0.0
2015-Feb-27 10:21N 29°57' E 122°08'0 0.0
2015-Feb-27 09:24N 29°57' E 122°08'0 0.0
2015-Feb-27 08:33N 29°57' E 122°08'0 0.0
2015-Feb-27 07:15N 29°57' E 122°08'0 0.0
2015-Feb-27 05:12N 29°57' E 122°08'0 0.1
2015-Feb-27 04:33N 29°57' E 122°08'4 4.4
2015-Feb-27 03:33N 29°53' E 122°11'7 7.0
2015-Feb-27 02:33N 29°47' E 122°16'8 7.8
2015-Feb-27 01:33N 29°43' E 122°24'10 9.7
2015-Feb-27 00:33N 29°42' E 122°35'0 0.4
2015-Feb-26 23:21N 29°41' E 122°35'0 0.0
2015-Feb-26 22:30N 29°41' E 122°35'0 0.0
2015-Feb-26 14:30N 29°41' E 122°35'0 0.0
2015-Feb-26 13:27N 29°41' E 122°35'0 0.0
2015-Feb-26 11:33N 29°41' E 122°35'7 6.6
2015-Feb-26 10:33N 29°35' E 122°37'2311.2
2015-Feb-26 08:30N 29°12' E 122°38'  

Dump ship's entire track history